sensor_id;sensor_type;location;lat;lon;timestamp;temperature;humidity
19864;DHT22;10094;48.820;9.226;2023-02-01T00:05:27;5.80;99.90
19864;DHT22;10094;48.820;9.226;2023-02-01T00:12:09;5.70;99.90
19864;DHT22;10094;48.820;9.226;2023-02-01T00:19:07;5.70;99.90
19864;DHT22;10094;48.820;9.226;2023-02-01T00:25:49;5.60;99.90
19864;DHT22;10094;48.820;9.226;2023-02-01T00:32:31;5.60;99.90
19864;DHT22;10094;48.820;9.226;2023-02-01T00:39:15;5.60;99.90
19864;DHT22;10094;48.820;9.226;2023-02-01T00:45:57;5.60;99.90
19864;DHT22;10094;48.820;9.226;2023-02-01T00:52:40;5.50;99.90
19864;DHT22;10094;48.820;9.226;2023-02-01T00:59:22;5.60;99.90
19864;DHT22;10094;48.820;9.226;2023-02-01T01:06:10;5.70;99.90
19864;DHT22;10094;48.820;9.226;2023-02-01T01:12:53;5.70;99.90
19864;DHT22;10094;48.820;9.226;2023-02-01T01:19:36;5.60;99.90
19864;DHT22;10094;48.820;9.226;2023-02-01T01:26:21;5.40;99.90
19864;DHT22;10094;48.820;9.226;2023-02-01T01:33:04;5.30;99.90
19864;DHT22;10094;48.820;9.226;2023-02-01T01:39:47;5.40;99.90
19864;DHT22;10094;48.820;9.226;2023-02-01T01:46:34;5.50;99.90
19864;DHT22;10094;48.820;9.226;2023-02-01T01:53:22;5.50;99.90
19864;DHT22;10094;48.820;9.226;2023-02-01T02:00:09;5.50;99.90
19864;DHT22;10094;48.820;9.226;2023-02-01T02:07:00;5.60;99.90
19864;DHT22;10094;48.820;9.226;2023-02-01T02:13:48;5.60;99.90
19864;DHT22;10094;48.820;9.226;2023-02-01T02:49:52;5.60;99.90
19864;DHT22;10094;48.820;9.226;2023-02-01T02:56:58;5.60;99.90
19864;DHT22;10094;48.820;9.226;2023-02-01T03:04:00;5.70;99.90
19864;DHT22;10094;48.820;9.226;2023-02-01T03:11:03;5.70;99.90
19864;DHT22;10094;48.820;9.226;2023-02-01T03:17:47;5.80;99.90
19864;DHT22;10094;48.820;9.226;2023-02-01T03:24:34;5.80;99.90
19864;DHT22;10094;48.820;9.226;2023-02-01T03:31:19;5.70;99.90
19864;DHT22;10094;48.820;9.226;2023-02-01T03:45:13;5.70;99.90
19864;DHT22;10094;48.820;9.226;2023-02-01T03:51:58;5.60;99.90
19864;DHT22;10094;48.820;9.226;2023-02-01T03:58:41;5.70;99.90
19864;DHT22;10094;48.820;9.226;2023-02-01T04:05:24;5.70;99.90
19864;DHT22;10094;48.820;9.226;2023-02-01T04:12:11;5.70;99.90
19864;DHT22;10094;48.820;9.226;2023-02-01T04:18:53;5.80;99.90
19864;DHT22;10094;48.820;9.226;2023-02-01T04:25:36;5.80;99.90
19864;DHT22;10094;48.820;9.226;2023-02-01T04:32:18;5.80;99.90
19864;DHT22;10094;48.820;9.226;2023-02-01T04:39:02;5.70;99.90
19864;DHT22;10094;48.820;9.226;2023-02-01T04:45:51;5.60;99.90
19864;DHT22;10094;48.820;9.226;2023-02-01T04:52:33;5.60;99.90
19864;DHT22;10094;48.820;9.226;2023-02-01T04:59:15;5.60;99.90
19864;DHT22;10094;48.820;9.226;2023-02-01T05:05:58;5.70;99.90
19864;DHT22;10094;48.820;9.226;2023-02-01T05:12:43;5.80;99.90
19864;DHT22;10094;48.820;9.226;2023-02-01T05:19:44;5.70;99.90
19864;DHT22;10094;48.820;9.226;2023-02-01T05:26:27;5.70;99.90
19864;DHT22;10094;48.820;9.226;2023-02-01T05:33:09;5.80;99.90
19864;DHT22;10094;48.820;9.226;2023-02-01T05:39:51;5.90;99.90
19864;DHT22;10094;48.820;9.226;2023-02-01T05:46:34;6.00;99.90
19864;DHT22;10094;48.820;9.226;2023-02-01T05:53:17;6.00;99.90
19864;DHT22;10094;48.820;9.226;2023-02-01T05:59:59;6.00;99.90
19864;DHT22;10094;48.820;9.226;2023-02-01T06:06:42;6.00;99.90
19864;DHT22;10094;48.820;9.226;2023-02-01T06:13:25;6.00;99.90
19864;DHT22;10094;48.820;9.226;2023-02-01T06:20:08;5.90;99.90
19864;DHT22;10094;48.820;9.226;2023-02-01T06:26:53;5.90;99.90
19864;DHT22;10094;48.820;9.226;2023-02-01T06:33:36;6.00;99.90
19864;DHT22;10094;48.820;9.226;2023-02-01T06:40:18;6.10;99.90
19864;DHT22;10094;48.820;9.226;2023-02-01T06:47:00;6.10;99.90
19864;DHT22;10094;48.820;9.226;2023-02-01T06:53:43;6.10;99.90
19864;DHT22;10094;48.820;9.226;2023-02-01T07:00:25;6.10;99.90
19864;DHT22;10094;48.820;9.226;2023-02-01T07:07:08;6.30;99.90
19864;DHT22;10094;48.820;9.226;2023-02-01T07:13:50;6.40;99.90
19864;DHT22;10094;48.820;9.226;2023-02-01T07:20:32;6.50;99.90
19864;DHT22;10094;48.820;9.226;2023-02-01T07:27:15;6.50;99.90
19864;DHT22;10094;48.820;9.226;2023-02-01T07:33:57;6.60;99.90
19864;DHT22;10094;48.820;9.226;2023-02-01T07:40:41;6.70;99.90
19864;DHT22;10094;48.820;9.226;2023-02-01T07:47:23;6.80;99.90
19864;DHT22;10094;48.820;9.226;2023-02-01T07:54:06;6.80;99.90
19864;DHT22;10094;48.820;9.226;2023-02-01T08:00:48;6.80;99.90
19864;DHT22;10094;48.820;9.226;2023-02-01T08:07:49;6.80;99.90
19864;DHT22;10094;48.820;9.226;2023-02-01T08:14:32;7.00;99.90
19864;DHT22;10094;48.820;9.226;2023-02-01T08:21:18;7.20;99.90
19864;DHT22;10094;48.820;9.226;2023-02-01T08:28:00;7.30;99.90
19864;DHT22;10094;48.820;9.226;2023-02-01T08:34:42;7.60;99.90
19864;DHT22;10094;48.820;9.226;2023-02-01T08:41:27;7.90;99.90
19864;DHT22;10094;48.820;9.226;2023-02-01T08:48:11;8.10;99.90
19864;DHT22;10094;48.820;9.226;2023-02-01T08:54:53;8.30;99.90
19864;DHT22;10094;48.820;9.226;2023-02-01T09:01:35;8.30;99.90
19864;DHT22;10094;48.820;9.226;2023-02-01T09:08:19;8.20;99.90
19864;DHT22;10094;48.820;9.226;2023-02-01T09:15:02;8.10;99.90
19864;DHT22;10094;48.820;9.226;2023-02-01T09:21:45;7.90;99.90
19864;DHT22;10094;48.820;9.226;2023-02-01T09:28:28;7.90;99.90
19864;DHT22;10094;48.820;9.226;2023-02-01T09:35:10;7.80;99.90
19864;DHT22;10094;48.820;9.226;2023-02-01T09:49:14;8.60;99.90
19864;DHT22;10094;48.820;9.226;2023-02-01T09:56:14;8.50;99.90
19864;DHT22;10094;48.820;9.226;2023-02-01T10:03:00;8.40;99.90
19864;DHT22;10094;48.820;9.226;2023-02-01T10:25:18;8.80;99.90
19864;DHT22;10094;48.820;9.226;2023-02-01T10:31:29;8.90;99.90
19864;DHT22;10094;48.820;9.226;2023-02-01T10:38:24;9.10;99.90
19864;DHT22;10094;48.820;9.226;2023-02-01T10:45:22;9.00;99.90
19864;DHT22;10094;48.820;9.226;2023-02-01T10:59:28;8.80;99.90
19864;DHT22;10094;48.820;9.226;2023-02-01T11:06:30;8.90;99.90
19864;DHT22;10094;48.820;9.226;2023-02-01T11:13:15;8.80;99.90
19864;DHT22;10094;48.820;9.226;2023-02-01T11:20:06;8.90;99.90
19864;DHT22;10094;48.820;9.226;2023-02-01T11:26:49;8.90;99.90
19864;DHT22;10094;48.820;9.226;2023-02-01T11:33:34;8.80;99.90
19864;DHT22;10094;48.820;9.226;2023-02-01T11:47:28;8.70;99.90
19864;DHT22;10094;48.820;9.226;2023-02-01T11:54:33;8.70;99.90
19864;DHT22;10094;48.820;9.226;2023-02-01T12:22:21;8.70;98.90
19864;DHT22;10094;48.820;9.226;2023-02-01T12:43:56;8.60;99.70
19864;DHT22;10094;48.820;9.226;2023-02-01T12:50:45;8.50;99.90
19864;DHT22;10094;48.820;9.226;2023-02-01T12:57:33;8.10;99.90
19864;DHT22;10094;48.820;9.226;2023-02-01T13:04:23;8.20;99.90
19864;DHT22;10094;48.820;9.226;2023-02-01T13:11:12;8.10;99.90
19864;DHT22;10094;48.820;9.226;2023-02-01T13:18:02;8.10;99.90
19864;DHT22;10094;48.820;9.226;2023-02-01T13:24:58;7.90;99.90
19864;DHT22;10094;48.820;9.226;2023-02-01T13:45:47;8.20;99.90
19864;DHT22;10094;48.820;9.226;2023-02-01T13:52:42;8.20;99.90
19864;DHT22;10094;48.820;9.226;2023-02-01T14:06:58;8.30;99.90
19864;DHT22;10094;48.820;9.226;2023-02-01T14:13:41;8.10;99.90
19864;DHT22;10094;48.820;9.226;2023-02-01T14:27:25;8.20;99.90
19864;DHT22;10094;48.820;9.226;2023-02-01T14:34:31;8.20;99.90
19864;DHT22;10094;48.820;9.226;2023-02-01T14:41:35;8.20;99.90
19864;DHT22;10094;48.820;9.226;2023-02-01T14:55:04;8.30;99.90
19864;DHT22;10094;48.820;9.226;2023-02-01T15:01:53;8.20;99.90
19864;DHT22;10094;48.820;9.226;2023-02-01T15:08:39;8.10;99.90
19864;DHT22;10094;48.820;9.226;2023-02-01T15:15:23;8.10;99.90
19864;DHT22;10094;48.820;9.226;2023-02-01T15:22:18;8.00;99.90
19864;DHT22;10094;48.820;9.226;2023-02-01T15:29:01;7.90;99.90
19864;DHT22;10094;48.820;9.226;2023-02-01T15:35:45;7.90;99.90
19864;DHT22;10094;48.820;9.226;2023-02-01T15:42:28;7.90;99.90
19864;DHT22;10094;48.820;9.226;2023-02-01T15:49:32;7.90;99.90
19864;DHT22;10094;48.820;9.226;2023-02-01T15:56:23;7.90;99.90
19864;DHT22;10094;48.820;9.226;2023-02-01T16:03:12;7.90;99.90
19864;DHT22;10094;48.820;9.226;2023-02-01T16:10:23;7.80;99.90
19864;DHT22;10094;48.820;9.226;2023-02-01T16:17:07;7.80;99.90
19864;DHT22;10094;48.820;9.226;2023-02-01T16:23:51;7.80;99.90
19864;DHT22;10094;48.820;9.226;2023-02-01T16:30:34;7.80;99.90
19864;DHT22;10094;48.820;9.226;2023-02-01T16:37:20;7.80;99.90
19864;DHT22;10094;48.820;9.226;2023-02-01T16:44:03;7.80;99.90
19864;DHT22;10094;48.820;9.226;2023-02-01T16:50:47;7.70;99.90
19864;DHT22;10094;48.820;9.226;2023-02-01T16:57:29;7.70;99.90
19864;DHT22;10094;48.820;9.226;2023-02-01T17:04:12;7.70;99.90
19864;DHT22;10094;48.820;9.226;2023-02-01T17:10:54;7.60;99.90
19864;DHT22;10094;48.820;9.226;2023-02-01T17:17:37;7.60;99.90
19864;DHT22;10094;48.820;9.226;2023-02-01T17:24:25;7.50;99.90
19864;DHT22;10094;48.820;9.226;2023-02-01T17:31:20;7.60;99.90
19864;DHT22;10094;48.820;9.226;2023-02-01T17:38:03;7.60;99.90
19864;DHT22;10094;48.820;9.226;2023-02-01T17:44:45;7.60;99.90
19864;DHT22;10094;48.820;9.226;2023-02-01T17:51:28;7.70;99.90
19864;DHT22;10094;48.820;9.226;2023-02-01T17:58:13;7.70;99.90
19864;DHT22;10094;48.820;9.226;2023-02-01T18:04:56;7.60;99.90
19864;DHT22;10094;48.820;9.226;2023-02-01T18:11:38;7.60;99.90
19864;DHT22;10094;48.820;9.226;2023-02-01T18:18:22;7.60;99.90
19864;DHT22;10094;48.820;9.226;2023-02-01T18:25:14;7.60;99.90
19864;DHT22;10094;48.820;9.226;2023-02-01T18:31:57;7.60;99.90
19864;DHT22;10094;48.820;9.226;2023-02-01T18:38:41;7.60;99.90
19864;DHT22;10094;48.820;9.226;2023-02-01T18:45:34;7.60;99.90
19864;DHT22;10094;48.820;9.226;2023-02-01T18:52:17;7.60;99.90
19864;DHT22;10094;48.820;9.226;2023-02-01T18:58:59;7.60;99.90
19864;DHT22;10094;48.820;9.226;2023-02-01T19:05:41;7.50;99.90
19864;DHT22;10094;48.820;9.226;2023-02-01T19:12:24;7.60;99.90
19864;DHT22;10094;48.820;9.226;2023-02-01T19:19:06;7.60;99.90
19864;DHT22;10094;48.820;9.226;2023-02-01T19:25:48;7.50;99.90
19864;DHT22;10094;48.820;9.226;2023-02-01T19:32:31;7.50;99.90
19864;DHT22;10094;48.820;9.226;2023-02-01T19:39:13;7.50;99.90
19864;DHT22;10094;48.820;9.226;2023-02-01T19:45:55;7.50;99.90
19864;DHT22;10094;48.820;9.226;2023-02-01T19:52:38;7.40;99.90
19864;DHT22;10094;48.820;9.226;2023-02-01T19:59:20;7.50;99.90
19864;DHT22;10094;48.820;9.226;2023-02-01T20:06:05;7.40;99.90
19864;DHT22;10094;48.820;9.226;2023-02-01T20:12:49;7.50;99.90
19864;DHT22;10094;48.820;9.226;2023-02-01T20:19:32;7.50;99.90
19864;DHT22;10094;48.820;9.226;2023-02-01T20:26:15;7.60;99.90
19864;DHT22;10094;48.820;9.226;2023-02-01T20:32:57;7.60;99.90
19864;DHT22;10094;48.820;9.226;2023-02-01T20:39:40;7.60;99.90
19864;DHT22;10094;48.820;9.226;2023-02-01T20:46:22;7.60;99.90
19864;DHT22;10094;48.820;9.226;2023-02-01T20:53:05;7.70;99.90
19864;DHT22;10094;48.820;9.226;2023-02-01T20:59:47;7.70;99.90
19864;DHT22;10094;48.820;9.226;2023-02-01T21:06:30;7.70;99.90
19864;DHT22;10094;48.820;9.226;2023-02-01T21:13:12;7.70;99.90
19864;DHT22;10094;48.820;9.226;2023-02-01T21:19:55;7.80;99.90
19864;DHT22;10094;48.820;9.226;2023-02-01T21:26:37;7.80;99.90
19864;DHT22;10094;48.820;9.226;2023-02-01T21:33:22;7.80;99.90
19864;DHT22;10094;48.820;9.226;2023-02-01T21:40:05;7.80;99.90
19864;DHT22;10094;48.820;9.226;2023-02-01T21:46:48;7.80;99.90
19864;DHT22;10094;48.820;9.226;2023-02-01T21:53:30;7.80;99.90
19864;DHT22;10094;48.820;9.226;2023-02-01T22:00:13;7.80;99.90
19864;DHT22;10094;48.820;9.226;2023-02-01T22:06:56;7.80;99.90
19864;DHT22;10094;48.820;9.226;2023-02-01T22:13:38;7.90;99.90
19864;DHT22;10094;48.820;9.226;2023-02-01T22:20:21;7.90;99.90
19864;DHT22;10094;48.820;9.226;2023-02-01T22:27:03;7.80;99.90
19864;DHT22;10094;48.820;9.226;2023-02-01T22:33:55;7.90;99.90
19864;DHT22;10094;48.820;9.226;2023-02-01T22:40:37;7.80;99.90
19864;DHT22;10094;48.820;9.226;2023-02-01T22:47:20;7.80;99.90
19864;DHT22;10094;48.820;9.226;2023-02-01T22:54:02;7.70;99.90
19864;DHT22;10094;48.820;9.226;2023-02-01T23:00:45;7.70;99.90
19864;DHT22;10094;48.820;9.226;2023-02-01T23:07:27;7.70;99.90
19864;DHT22;10094;48.820;9.226;2023-02-01T23:14:11;7.60;99.90
19864;DHT22;10094;48.820;9.226;2023-02-01T23:20:54;7.70;99.90
19864;DHT22;10094;48.820;9.226;2023-02-01T23:27:37;7.60;99.90
19864;DHT22;10094;48.820;9.226;2023-02-01T23:34:19;7.70;99.90
19864;DHT22;10094;48.820;9.226;2023-02-01T23:41:04;7.60;99.90
19864;DHT22;10094;48.820;9.226;2023-02-01T23:47:47;7.60;99.90
19864;DHT22;10094;48.820;9.226;2023-02-01T23:54:29;7.60;99.90
